createdAt,value
2022-08-31T00:00:23.338Z,21.51
2022-08-31T00:01:23.336Z,21.59
2022-08-31T00:02:23.358Z,21.50
2022-08-31T00:03:23.284Z,21.51
2022-08-31T00:04:23.320Z,21.51
2022-08-31T00:05:23.261Z,21.36
2022-08-31T00:06:23.252Z,21.32
2022-08-31T00:07:23.223Z,21.27
2022-08-31T00:08:23.215Z,21.24
2022-08-31T00:09:23.191Z,21.08
2022-08-31T00:10:32.966Z,21.13
2022-08-31T00:11:23.156Z,20.96
2022-08-31T00:12:23.143Z,20.90
2022-08-31T00:13:23.124Z,20.93
2022-08-31T00:14:23.116Z,20.81
2022-08-31T00:15:25.546Z,20.71
2022-08-31T00:16:23.113Z,20.72
2022-08-31T00:17:23.058Z,20.56
2022-08-31T00:18:23.038Z,20.51
2022-08-31T00:19:23.021Z,20.56
2022-08-31T00:20:33.637Z,20.68
2022-08-31T00:21:22.992Z,20.69
2022-08-31T00:22:22.978Z,20.56
2022-08-31T00:23:22.963Z,20.58
2022-08-31T00:24:22.943Z,20.41
2022-08-31T00:25:22.931Z,20.34
2022-08-31T00:26:22.917Z,20.30
2022-08-31T00:27:22.899Z,20.33
2022-08-31T00:28:22.899Z,20.13
2022-08-31T00:29:22.864Z,20.08
2022-08-31T00:30:22.849Z,20.08
2022-08-31T00:31:22.842Z,20.08
2022-08-31T00:32:25.372Z,20.05
2022-08-31T00:33:23.848Z,20.00
2022-08-31T00:34:22.785Z,19.98
2022-08-31T00:35:22.766Z,20.06
2022-08-31T00:36:22.752Z,19.90
2022-08-31T00:37:22.771Z,20.00
2022-08-31T00:38:22.710Z,20.02
2022-08-31T00:39:22.692Z,19.91
2022-08-31T00:40:22.733Z,19.98
2022-08-31T00:41:22.659Z,19.87
2022-08-31T00:42:22.653Z,19.73
2022-08-31T00:43:22.628Z,19.70
2022-08-31T00:44:22.609Z,19.73
2022-08-31T00:45:22.643Z,19.70
2022-08-31T00:46:22.579Z,19.65
2022-08-31T00:47:22.563Z,19.63
2022-08-31T00:48:22.552Z,19.60
2022-08-31T00:49:22.527Z,19.61
2022-08-31T00:50:22.510Z,19.48
2022-08-31T00:51:22.494Z,19.53
2022-08-31T00:52:22.475Z,19.58
2022-08-31T00:53:22.453Z,19.68
2022-08-31T00:54:22.445Z,19.63
2022-08-31T00:55:22.421Z,19.51
2022-08-31T00:56:22.404Z,19.47
2022-08-31T00:57:30.113Z,19.53
2022-08-31T00:58:22.370Z,19.50
2022-08-31T00:59:22.353Z,19.54
2022-08-31T01:00:22.342Z,19.48
2022-08-31T01:01:22.467Z,19.47
2022-08-31T01:02:22.357Z,19.43
2022-08-31T01:03:22.288Z,19.42
2022-08-31T01:04:22.292Z,19.40
2022-08-31T01:05:22.251Z,19.39
2022-08-31T01:06:22.232Z,19.36
2022-08-31T01:07:22.227Z,19.25
2022-08-31T01:08:28.808Z,19.33
2022-08-31T01:09:22.187Z,19.25
2022-08-31T01:10:22.166Z,19.33
2022-08-31T01:11:22.148Z,19.21
2022-08-31T01:12:22.132Z,19.15
2022-08-31T01:13:22.115Z,19.20
2022-08-31T01:14:22.100Z,19.15
2022-08-31T01:15:22.077Z,19.17
2022-08-31T01:16:22.118Z,19.15
2022-08-31T01:17:22.042Z,19.21
2022-08-31T01:18:22.030Z,19.14
2022-08-31T01:19:22.012Z,19.08
2022-08-31T01:20:21.995Z,19.06
2022-08-31T01:21:21.978Z,19.05
2022-08-31T01:22:21.960Z,19.13
2022-08-31T01:23:21.938Z,19.10
2022-08-31T01:24:21.941Z,19.18
2022-08-31T01:25:21.906Z,19.25
2022-08-31T01:26:21.889Z,19.36
2022-08-31T01:27:21.872Z,19.53
2022-08-31T01:28:21.853Z,19.51
2022-08-31T01:30:21.819Z,19.79
2022-08-31T01:31:21.845Z,19.90
2022-08-31T01:32:21.781Z,20.00
2022-08-31T01:33:21.782Z,20.05
2022-08-31T01:34:21.756Z,20.08
2022-08-31T01:35:21.736Z,20.13
2022-08-31T01:36:21.795Z,20.12
2022-08-31T01:37:29.226Z,20.24
2022-08-31T01:38:21.685Z,20.28
2022-08-31T01:39:21.674Z,20.31
2022-08-31T01:40:21.684Z,20.47
2022-08-31T01:41:21.628Z,20.49
2022-08-31T01:42:21.615Z,20.53
2022-08-31T01:43:21.595Z,20.68
2022-08-31T01:44:21.581Z,20.72
2022-08-31T01:45:21.559Z,20.87
2022-08-31T01:46:22.172Z,20.71
2022-08-31T01:47:21.595Z,20.77
2022-08-31T01:48:21.515Z,20.83
2022-08-31T01:49:21.530Z,20.74
2022-08-31T01:50:21.472Z,20.68
2022-08-31T01:51:21.461Z,20.49
2022-08-31T01:52:21.440Z,20.49
2022-08-31T01:53:21.424Z,20.27
2022-08-31T01:54:21.408Z,20.13
2022-08-31T01:55:21.390Z,20.05
2022-08-31T01:56:21.371Z,19.87
2022-08-31T01:57:33.563Z,19.70
2022-08-31T01:58:21.344Z,19.70
2022-08-31T01:59:21.322Z,19.61
2022-08-31T02:00:21.303Z,19.51
2022-08-31T02:01:32.878Z,19.33
2022-08-31T02:02:21.311Z,19.31
2022-08-31T02:03:21.251Z,19.20
2022-08-31T02:04:21.236Z,19.17
2022-08-31T02:05:21.218Z,19.15
2022-08-31T02:06:21.199Z,19.15
2022-08-31T02:07:21.194Z,19.25
2022-08-31T02:08:21.164Z,19.54
2022-08-31T02:09:21.150Z,19.53
2022-08-31T02:10:21.137Z,19.69
2022-08-31T02:11:21.109Z,19.76
2022-08-31T02:12:21.099Z,19.76
2022-08-31T02:13:21.111Z,19.72
2022-08-31T02:14:21.073Z,19.83
2022-08-31T02:15:21.048Z,19.73
2022-08-31T02:16:21.134Z,19.70
2022-08-31T02:17:21.027Z,19.63
2022-08-31T02:18:21.039Z,19.57
2022-08-31T02:19:20.977Z,19.57
2022-08-31T02:20:20.961Z,19.28
2022-08-31T02:21:20.942Z,19.28
2022-08-31T02:22:20.925Z,19.21
2022-08-31T02:23:20.907Z,19.05
2022-08-31T02:24:20.890Z,18.98
2022-08-31T02:25:20.874Z,18.94
2022-08-31T02:26:20.855Z,18.95
2022-08-31T02:27:20.842Z,18.92
2022-08-31T02:28:20.834Z,18.95
2022-08-31T02:29:20.806Z,18.94
2022-08-31T02:30:20.834Z,19.01
2022-08-31T02:31:20.849Z,18.94
2022-08-31T02:32:20.782Z,18.97
2022-08-31T02:33:20.807Z,18.97
2022-08-31T02:34:20.739Z,18.90
2022-08-31T02:35:20.708Z,18.83
2022-08-31T02:36:20.678Z,18.83
2022-08-31T02:37:21.091Z,18.72
2022-08-31T02:38:20.653Z,18.68
2022-08-31T02:39:20.631Z,18.65
2022-08-31T02:40:20.722Z,18.61
2022-08-31T02:41:20.591Z,18.50
2022-08-31T02:42:20.579Z,18.42
2022-08-31T02:43:24.715Z,18.47
2022-08-31T02:44:20.541Z,18.40
2022-08-31T02:45:20.527Z,18.43
2022-08-31T02:46:20.588Z,18.42
2022-08-31T02:47:20.487Z,18.34
2022-08-31T02:48:20.470Z,18.29
2022-08-31T02:49:20.471Z,18.37
2022-08-31T02:50:20.436Z,18.31
2022-08-31T02:51:20.415Z,18.21
2022-08-31T02:52:20.416Z,18.27
2022-08-31T02:53:20.466Z,18.24
2022-08-31T02:54:20.360Z,18.13
2022-08-31T02:55:22.103Z,17.99
2022-08-31T02:56:20.325Z,18.07
2022-08-31T02:57:20.312Z,18.03
2022-08-31T02:58:24.011Z,18.06
2022-08-31T02:59:20.273Z,18.18
2022-08-31T03:00:20.253Z,18.12
2022-08-31T03:01:20.268Z,18.22
2022-08-31T03:02:20.273Z,18.28
2022-08-31T03:03:20.405Z,18.18
2022-08-31T03:04:20.183Z,18.19
2022-08-31T03:05:20.246Z,18.10
2022-08-31T03:06:20.145Z,18.12
2022-08-31T03:07:20.165Z,18.07
2022-08-31T03:08:20.115Z,18.02
2022-08-31T03:09:20.095Z,17.97
2022-08-31T03:10:20.074Z,17.88
2022-08-31T03:11:20.056Z,17.92
2022-08-31T03:12:20.056Z,17.94
2022-08-31T03:13:20.336Z,17.91
2022-08-31T03:14:19.998Z,17.92
2022-08-31T03:15:19.982Z,17.91
2022-08-31T03:16:20.045Z,17.91
2022-08-31T03:17:19.949Z,17.87
2022-08-31T03:18:19.934Z,18.02
2022-08-31T03:19:20.725Z,17.87
2022-08-31T03:20:19.893Z,17.91
2022-08-31T03:21:19.876Z,17.89
2022-08-31T03:22:19.879Z,17.92
2022-08-31T03:23:20.044Z,17.85
2022-08-31T03:24:19.829Z,17.97
2022-08-31T03:25:19.805Z,17.84
2022-08-31T03:26:19.785Z,17.85
2022-08-31T03:27:19.768Z,17.87
2022-08-31T03:28:19.749Z,17.88
2022-08-31T03:29:19.727Z,17.94
2022-08-31T03:30:19.714Z,18.02
2022-08-31T03:31:19.742Z,18.03
2022-08-31T03:32:19.699Z,18.02
2022-08-31T03:33:19.807Z,17.97
2022-08-31T03:34:19.641Z,18.02
2022-08-31T03:35:19.623Z,17.99
2022-08-31T03:36:19.607Z,17.99
2022-08-31T03:37:19.592Z,17.88
2022-08-31T03:38:19.573Z,17.89
2022-08-31T03:39:19.553Z,17.89
2022-08-31T03:40:19.563Z,17.88
2022-08-31T03:41:19.547Z,17.99
2022-08-31T03:42:19.493Z,17.97
2022-08-31T03:43:19.736Z,18.00
2022-08-31T03:44:19.457Z,17.87
2022-08-31T03:45:19.440Z,17.92
2022-08-31T03:46:19.468Z,17.95
2022-08-31T03:47:19.418Z,17.97
2022-08-31T03:48:19.384Z,17.95
2022-08-31T03:49:19.391Z,17.88
2022-08-31T03:50:19.344Z,17.88
2022-08-31T03:51:19.332Z,17.87
2022-08-31T03:52:19.316Z,17.92
2022-08-31T03:53:22.941Z,17.97
2022-08-31T03:54:19.273Z,17.94
2022-08-31T03:55:19.269Z,17.97
2022-08-31T03:56:19.238Z,17.89
2022-08-31T03:57:19.228Z,17.99
2022-08-31T03:58:19.198Z,17.89
2022-08-31T03:59:19.198Z,17.85
2022-08-31T04:00:19.166Z,17.87
2022-08-31T04:01:19.209Z,17.94
2022-08-31T04:02:19.206Z,17.89
2022-08-31T04:03:19.297Z,17.89
2022-08-31T04:04:19.093Z,17.79
2022-08-31T04:05:19.076Z,17.89
2022-08-31T04:06:19.058Z,17.85
2022-08-31T04:07:19.042Z,17.82
2022-08-31T04:08:19.015Z,17.81
2022-08-31T04:09:19.032Z,17.84
2022-08-31T04:10:18.987Z,17.79
2022-08-31T04:11:19.815Z,17.79
2022-08-31T04:12:18.945Z,17.85
2022-08-31T04:13:19.139Z,17.85
2022-08-31T04:14:18.910Z,17.78
2022-08-31T04:15:18.894Z,17.81
2022-08-31T04:16:18.933Z,17.73
2022-08-31T04:17:18.853Z,17.76
2022-08-31T04:18:18.840Z,17.84
2022-08-31T04:19:18.820Z,17.73
2022-08-31T04:20:18.803Z,17.74
2022-08-31T04:21:18.782Z,17.76
2022-08-31T04:22:18.809Z,17.76
2022-08-31T04:23:18.985Z,17.76
2022-08-31T04:24:18.723Z,17.76
2022-08-31T04:25:18.718Z,17.79
2022-08-31T04:26:18.694Z,17.69
2022-08-31T04:27:18.675Z,17.63
2022-08-31T04:28:18.652Z,17.66
2022-08-31T04:29:18.636Z,17.64
2022-08-31T04:30:18.627Z,17.64
2022-08-31T04:31:18.649Z,17.67
2022-08-31T04:32:18.581Z,17.62
2022-08-31T04:33:18.794Z,17.63
2022-08-31T04:34:18.545Z,17.64
2022-08-31T04:35:18.534Z,17.62
2022-08-31T04:36:18.506Z,17.64
2022-08-31T04:37:18.486Z,17.69
2022-08-31T04:38:18.470Z,17.69
2022-08-31T04:39:18.474Z,17.66
2022-08-31T04:40:19.104Z,17.76
2022-08-31T04:41:18.417Z,17.71
2022-08-31T04:42:18.422Z,17.73
2022-08-31T04:43:18.558Z,17.70
2022-08-31T04:44:20.179Z,17.71
2022-08-31T04:45:18.348Z,17.69
2022-08-31T04:46:18.388Z,17.73
2022-08-31T04:47:18.311Z,17.69
2022-08-31T04:48:18.312Z,17.64
2022-08-31T04:49:18.266Z,17.67
2022-08-31T04:50:18.251Z,17.71
2022-08-31T04:51:18.232Z,17.78
2022-08-31T04:52:18.214Z,17.74
2022-08-31T04:53:18.391Z,17.78
2022-08-31T04:54:18.172Z,17.79
2022-08-31T04:55:18.168Z,17.87
2022-08-31T04:56:18.140Z,17.84
2022-08-31T04:57:18.126Z,17.87
2022-08-31T04:58:18.122Z,17.97
2022-08-31T04:59:18.085Z,17.78
2022-08-31T05:00:18.124Z,17.82
2022-08-31T05:01:18.134Z,17.87
2022-08-31T05:02:18.086Z,17.88
2022-08-31T05:03:18.123Z,17.85
2022-08-31T05:04:17.993Z,17.79
2022-08-31T05:05:18.010Z,17.78
2022-08-31T05:06:17.963Z,17.78
2022-08-31T05:07:17.940Z,17.85
2022-08-31T05:08:17.922Z,17.84
2022-08-31T05:09:17.903Z,17.76
2022-08-31T05:10:17.883Z,17.87
2022-08-31T05:11:20.781Z,17.85
2022-08-31T05:12:17.848Z,17.84
2022-08-31T05:13:17.998Z,17.89
2022-08-31T05:14:17.813Z,17.92
2022-08-31T05:15:17.819Z,17.92
2022-08-31T05:16:17.918Z,18.02
2022-08-31T05:17:17.757Z,17.95
2022-08-31T05:18:17.736Z,17.84
2022-08-31T05:19:17.716Z,17.97
2022-08-31T05:20:17.699Z,17.92
2022-08-31T05:21:17.682Z,17.88
2022-08-31T05:22:17.663Z,17.89
2022-08-31T05:23:17.808Z,17.97
2022-08-31T05:24:17.622Z,17.92
2022-08-31T05:25:17.627Z,17.94
2022-08-31T05:26:17.586Z,17.94
2022-08-31T05:27:17.574Z,18.02
2022-08-31T05:28:17.562Z,17.97
2022-08-31T05:29:17.556Z,18.02
2022-08-31T05:30:17.636Z,18.00
2022-08-31T05:31:17.592Z,18.00
2022-08-31T05:32:17.517Z,18.07
2022-08-31T05:33:17.493Z,18.09
2022-08-31T05:34:17.442Z,18.06
2022-08-31T05:35:17.433Z,18.00
2022-08-31T05:36:17.408Z,18.04
2022-08-31T05:37:17.392Z,18.03
2022-08-31T05:38:17.962Z,17.95
2022-08-31T05:39:17.357Z,18.07
2022-08-31T05:40:17.397Z,18.04
2022-08-31T05:41:17.317Z,17.99
2022-08-31T05:42:17.301Z,18.03
2022-08-31T05:43:17.329Z,18.12
2022-08-31T05:44:17.262Z,18.10
2022-08-31T05:45:17.253Z,18.22
2022-08-31T05:46:17.275Z,18.25
2022-08-31T05:47:17.211Z,18.25
2022-08-31T05:48:17.192Z,18.24
2022-08-31T05:49:17.176Z,18.24
2022-08-31T05:50:17.156Z,18.28
2022-08-31T05:51:17.157Z,18.25
2022-08-31T05:52:17.120Z,18.28
2022-08-31T05:53:17.239Z,18.21
2022-08-31T05:54:17.111Z,18.22
2022-08-31T05:55:17.098Z,18.25
2022-08-31T05:56:18.115Z,18.22
2022-08-31T05:57:17.027Z,18.27
2022-08-31T05:58:17.011Z,18.25
2022-08-31T05:59:16.987Z,18.31
2022-08-31T06:00:16.978Z,18.33
2022-08-31T06:01:16.968Z,18.46
2022-08-31T06:02:16.975Z,18.57
2022-08-31T06:03:17.003Z,18.73
2022-08-31T06:04:16.907Z,18.73
2022-08-31T06:05:16.992Z,18.64
2022-08-31T06:06:16.867Z,18.57
2022-08-31T06:07:16.847Z,18.55
2022-08-31T06:08:16.832Z,18.55
2022-08-31T06:09:16.812Z,18.42
2022-08-31T06:10:16.793Z,18.42
2022-08-31T06:11:16.805Z,18.34
2022-08-31T06:12:16.761Z,18.22
2022-08-31T06:13:16.749Z,18.13
2022-08-31T06:14:16.722Z,18.07
2022-08-31T06:15:16.704Z,18.00
2022-08-31T06:16:16.742Z,17.87
2022-08-31T06:17:16.663Z,17.82
2022-08-31T06:18:16.650Z,17.81
2022-08-31T06:19:16.627Z,17.78
2022-08-31T06:20:17.912Z,17.69
2022-08-31T06:21:16.593Z,17.55
2022-08-31T06:22:16.584Z,17.66
2022-08-31T06:23:16.551Z,17.57
2022-08-31T06:24:16.536Z,17.53
2022-08-31T06:25:16.515Z,17.47
2022-08-31T06:26:16.505Z,17.46
2022-08-31T06:27:16.481Z,17.43
2022-08-31T06:28:16.460Z,17.59
2022-08-31T06:29:16.443Z,17.46
2022-08-31T06:30:16.423Z,17.51
2022-08-31T06:31:16.562Z,17.44
2022-08-31T06:32:16.384Z,17.50
2022-08-31T06:33:16.367Z,17.48
2022-08-31T06:34:16.346Z,17.48
2022-08-31T06:35:16.329Z,17.51
2022-08-31T06:36:16.310Z,17.50
2022-08-31T06:37:18.724Z,17.51
2022-08-31T06:38:16.271Z,17.46
2022-08-31T06:39:16.251Z,17.51
2022-08-31T06:40:16.274Z,17.44
2022-08-31T06:41:16.224Z,17.51
2022-08-31T06:42:16.232Z,17.51
2022-08-31T06:43:16.173Z,17.55
2022-08-31T06:44:16.156Z,17.46
2022-08-31T06:45:16.137Z,17.63
2022-08-31T06:46:16.174Z,17.63
2022-08-31T06:47:17.948Z,17.55
2022-08-31T06:48:16.108Z,17.55
2022-08-31T06:49:16.067Z,17.55
2022-08-31T06:50:16.054Z,17.63
2022-08-31T06:51:16.032Z,17.59
2022-08-31T06:52:16.014Z,17.59
2022-08-31T06:53:16.016Z,17.69
2022-08-31T06:54:28.976Z,17.66
2022-08-31T06:55:15.954Z,17.78
2022-08-31T06:56:21.075Z,17.79
2022-08-31T06:57:15.916Z,17.87
2022-08-31T06:58:15.901Z,17.81
2022-08-31T06:59:15.885Z,17.85
2022-08-31T07:00:15.888Z,17.81
2022-08-31T07:01:16.010Z,17.79
2022-08-31T07:02:15.945Z,17.81
2022-08-31T07:03:15.805Z,17.85
2022-08-31T07:04:15.791Z,17.91
2022-08-31T07:05:20.204Z,17.89
2022-08-31T07:06:15.785Z,17.81
2022-08-31T07:07:15.747Z,17.89
2022-08-31T07:08:15.716Z,17.92
2022-08-31T07:09:15.701Z,17.95
2022-08-31T07:10:15.697Z,18.00
2022-08-31T07:11:15.670Z,18.04
2022-08-31T07:12:15.658Z,17.95
2022-08-31T07:13:15.625Z,18.00
2022-08-31T07:14:15.622Z,17.95
2022-08-31T07:15:15.582Z,17.97
2022-08-31T07:16:15.645Z,18.03
2022-08-31T07:17:15.567Z,18.03
2022-08-31T07:18:15.529Z,17.89
2022-08-31T07:19:15.517Z,17.92
2022-08-31T07:20:15.488Z,18.00
2022-08-31T07:21:15.490Z,18.02
2022-08-31T07:22:15.720Z,18.04
2022-08-31T07:23:15.481Z,18.03
2022-08-31T07:24:15.425Z,18.13
2022-08-31T07:25:15.400Z,18.15
2022-08-31T07:26:15.395Z,18.27
2022-08-31T07:27:15.366Z,18.22
2022-08-31T07:28:15.352Z,18.15
2022-08-31T07:29:15.338Z,18.24
2022-08-31T07:30:15.312Z,18.28
2022-08-31T07:31:15.394Z,18.28
2022-08-31T07:32:15.296Z,18.28
2022-08-31T07:33:15.279Z,18.36
2022-08-31T07:34:15.260Z,18.39
2022-08-31T07:35:15.262Z,18.44
2022-08-31T07:36:15.206Z,18.44
2022-08-31T07:37:15.192Z,18.44
2022-08-31T07:38:15.171Z,18.57
2022-08-31T07:39:15.149Z,18.59
2022-08-31T07:40:15.212Z,18.57
2022-08-31T07:41:15.129Z,18.67
2022-08-31T07:42:15.097Z,18.67
2022-08-31T07:43:15.141Z,18.62
2022-08-31T07:44:15.061Z,18.70
2022-08-31T07:45:15.050Z,18.74
2022-08-31T07:46:15.121Z,18.76
2022-08-31T07:47:15.014Z,18.82
2022-08-31T07:48:15.001Z,18.80
2022-08-31T07:49:14.974Z,18.80
2022-08-31T07:50:14.957Z,18.87
2022-08-31T07:51:15.309Z,18.91
2022-08-31T07:52:14.930Z,18.94
2022-08-31T07:53:14.936Z,18.94
2022-08-31T07:54:14.898Z,18.94
2022-08-31T07:55:14.866Z,18.99
2022-08-31T07:56:14.853Z,18.98
2022-08-31T07:57:14.835Z,18.97
2022-08-31T07:58:14.820Z,18.99
2022-08-31T07:59:14.807Z,18.98
2022-08-31T08:00:14.789Z,18.97
2022-08-31T08:01:14.787Z,18.94
2022-08-31T08:02:17.380Z,19.10
2022-08-31T08:03:14.942Z,19.06
2022-08-31T08:04:14.726Z,19.17
2022-08-31T08:05:14.712Z,18.95
2022-08-31T08:06:14.681Z,18.94
2022-08-31T08:07:14.672Z,18.92
2022-08-31T08:08:15.725Z,18.97
2022-08-31T08:09:25.208Z,18.94
2022-08-31T08:10:14.746Z,18.98
2022-08-31T08:11:14.600Z,19.10
2022-08-31T08:12:14.591Z,19.13
2022-08-31T08:13:14.562Z,19.08
2022-08-31T08:14:14.549Z,18.94
2022-08-31T08:15:14.529Z,19.05
2022-08-31T08:16:14.571Z,19.02
2022-08-31T08:17:14.506Z,19.13
2022-08-31T08:18:14.490Z,19.21
2022-08-31T08:19:14.465Z,19.21
2022-08-31T08:20:14.444Z,19.25
2022-08-31T08:21:14.455Z,19.29
2022-08-31T08:22:26.159Z,19.39
2022-08-31T08:23:14.735Z,19.24
2022-08-31T08:24:14.376Z,19.23
2022-08-31T08:25:14.364Z,19.28
2022-08-31T08:26:21.773Z,19.23
2022-08-31T08:27:14.320Z,19.35
2022-08-31T08:28:35.882Z,19.42
2022-08-31T08:29:14.295Z,19.36
2022-08-31T08:30:14.286Z,19.42
2022-08-31T08:31:14.345Z,19.46
2022-08-31T08:32:17.388Z,19.43
2022-08-31T08:33:14.271Z,19.38
2022-08-31T08:34:14.215Z,19.50
2022-08-31T08:35:14.190Z,19.66
2022-08-31T08:36:14.179Z,19.69
2022-08-31T08:37:14.165Z,19.75
2022-08-31T08:38:14.141Z,19.79
2022-08-31T08:39:14.127Z,19.83
2022-08-31T08:40:14.144Z,19.86
2022-08-31T08:41:14.097Z,19.95
2022-08-31T08:42:14.077Z,19.95
2022-08-31T08:43:14.137Z,19.93
2022-08-31T08:44:17.836Z,19.91
2022-08-31T08:45:14.027Z,20.00
2022-08-31T08:46:33.547Z,20.10
2022-08-31T08:47:13.999Z,20.12
2022-08-31T08:48:13.978Z,20.09
2022-08-31T08:49:13.969Z,20.15
2022-08-31T08:50:13.949Z,20.03
2022-08-31T08:51:13.931Z,20.05
2022-08-31T08:52:13.926Z,20.05
2022-08-31T08:53:13.916Z,20.16
2022-08-31T08:54:13.919Z,20.18
2022-08-31T08:55:13.868Z,20.24
2022-08-31T08:56:32.272Z,20.18
2022-08-31T08:57:13.836Z,20.09
2022-08-31T08:58:13.826Z,20.24
2022-08-31T08:59:17.292Z,20.24
2022-08-31T09:00:13.793Z,20.30
2022-08-31T09:01:13.819Z,20.31
2022-08-31T09:02:13.867Z,20.30
2022-08-31T09:03:13.744Z,20.35
2022-08-31T09:04:13.750Z,20.39
2022-08-31T09:05:13.721Z,20.25
2022-08-31T09:06:13.725Z,20.25
2022-08-31T09:07:13.680Z,20.23
2022-08-31T09:08:13.669Z,20.28
2022-08-31T09:09:13.660Z,20.42
2022-08-31T09:10:13.641Z,20.38
2022-08-31T09:11:13.641Z,20.47
2022-08-31T09:12:15.070Z,20.54
2022-08-31T09:13:13.594Z,20.69
2022-08-31T09:14:13.578Z,20.69
2022-08-31T09:15:13.584Z,20.56
2022-08-31T09:16:13.597Z,20.46
2022-08-31T09:17:13.530Z,20.49
2022-08-31T09:18:13.536Z,20.53
2022-08-31T09:19:13.497Z,20.58
2022-08-31T09:20:13.486Z,20.59
2022-08-31T09:21:13.475Z,20.68
2022-08-31T09:22:13.457Z,20.53
2022-08-31T09:23:13.524Z,20.66
2022-08-31T09:24:13.423Z,20.68
2022-08-31T09:25:13.415Z,20.68
2022-08-31T09:26:13.422Z,20.81
2022-08-31T09:27:13.412Z,20.80
2022-08-31T09:28:13.373Z,20.90
2022-08-31T09:29:13.358Z,20.95
2022-08-31T09:30:13.335Z,20.87
2022-08-31T09:31:13.391Z,20.84
2022-08-31T09:32:13.324Z,20.83
2022-08-31T09:33:13.295Z,20.79
2022-08-31T09:34:13.285Z,20.80
2022-08-31T09:35:13.262Z,20.77
2022-08-31T09:36:13.255Z,20.89
2022-08-31T09:37:13.233Z,20.95
2022-08-31T09:38:13.224Z,20.98
2022-08-31T09:39:13.206Z,21.13
2022-08-31T09:40:13.231Z,20.99
2022-08-31T09:41:13.181Z,20.99
2022-08-31T09:42:13.174Z,21.02
2022-08-31T09:43:13.801Z,21.04
2022-08-31T09:44:13.147Z,20.99
2022-08-31T09:45:14.195Z,20.91
2022-08-31T09:46:13.180Z,20.98
2022-08-31T09:47:13.089Z,20.96
2022-08-31T09:48:13.075Z,20.83
2022-08-31T09:49:13.068Z,20.76
2022-08-31T09:50:13.550Z,20.77
2022-08-31T09:51:13.034Z,20.81
2022-08-31T09:52:13.024Z,20.84
2022-08-31T09:53:13.001Z,20.80
2022-08-31T09:54:12.986Z,20.84
2022-08-31T09:55:12.970Z,20.93
2022-08-31T09:56:12.959Z,20.90
2022-08-31T09:57:12.940Z,20.93
2022-08-31T09:58:12.932Z,21.02
2022-08-31T09:59:12.949Z,21.17
2022-08-31T10:00:12.920Z,21.17
2022-08-31T10:01:13.012Z,21.13
2022-08-31T10:02:12.876Z,21.04
2022-08-31T10:03:12.855Z,21.02
2022-08-31T10:04:12.839Z,21.13
2022-08-31T10:05:12.867Z,21.24
2022-08-31T10:06:12.809Z,21.19
2022-08-31T10:07:12.791Z,21.17
2022-08-31T10:08:16.317Z,21.24
2022-08-31T10:09:12.764Z,21.34
2022-08-31T10:10:29.867Z,21.48
2022-08-31T10:11:12.738Z,21.51
2022-08-31T10:12:12.727Z,21.53
2022-08-31T10:13:12.707Z,21.54
2022-08-31T10:14:12.717Z,21.57
2022-08-31T10:15:15.531Z,21.56
2022-08-31T10:16:12.752Z,21.61
2022-08-31T10:17:12.652Z,21.75
2022-08-31T10:18:12.637Z,21.71
2022-08-31T10:19:12.650Z,21.88
2022-08-31T10:20:12.611Z,21.99
2022-08-31T10:21:12.595Z,22.01
2022-08-31T10:22:12.584Z,22.04
2022-08-31T10:23:12.573Z,22.17
2022-08-31T10:24:12.557Z,22.22
2022-08-31T10:25:12.538Z,22.31
2022-08-31T10:26:12.563Z,22.39
2022-08-31T10:27:12.516Z,22.54
2022-08-31T10:28:12.500Z,22.59
2022-08-31T10:29:15.597Z,22.60
2022-08-31T10:30:12.476Z,22.69
2022-08-31T10:31:12.496Z,22.90
2022-08-31T10:32:12.450Z,22.97
2022-08-31T10:33:12.441Z,22.97
2022-08-31T10:34:12.425Z,22.89
2022-08-31T10:35:12.407Z,22.80
2022-08-31T10:36:12.406Z,22.93
2022-08-31T10:37:12.384Z,23.01
2022-08-31T10:38:15.692Z,23.07
2022-08-31T10:39:12.371Z,23.08
2022-08-31T10:40:12.415Z,23.12
2022-08-31T10:41:12.365Z,23.31
2022-08-31T10:42:12.361Z,23.32
2022-08-31T10:43:12.430Z,23.52
2022-08-31T10:44:12.292Z,23.60
2022-08-31T10:45:15.245Z,23.67
2022-08-31T10:46:12.412Z,23.68
2022-08-31T10:47:17.873Z,23.77
2022-08-31T10:48:12.287Z,23.97
2022-08-31T10:49:12.273Z,24.12
2022-08-31T10:50:12.295Z,23.95
2022-08-31T10:51:13.242Z,24.16
2022-08-31T10:52:12.205Z,24.20
2022-08-31T10:53:12.206Z,24.27
2022-08-31T10:54:12.193Z,24.20
2022-08-31T10:55:12.172Z,24.26
2022-08-31T10:56:12.162Z,24.39
2022-08-31T10:57:21.398Z,24.53
2022-08-31T10:58:12.132Z,24.53
2022-08-31T10:59:12.123Z,24.41
2022-08-31T11:00:12.149Z,24.05
2022-08-31T11:01:12.199Z,24.10
2022-08-31T11:02:12.090Z,24.10
2022-08-31T11:03:12.088Z,24.22
2022-08-31T11:04:12.094Z,24.56
2022-08-31T11:05:12.063Z,24.73
2022-08-31T11:06:12.048Z,25.01
2022-08-31T11:07:12.042Z,25.09
2022-08-31T11:08:12.030Z,25.30
2022-08-31T11:09:13.032Z,25.52
2022-08-31T11:10:12.066Z,25.49
2022-08-31T11:11:12.021Z,25.20
2022-08-31T11:12:11.989Z,25.06
2022-08-31T11:13:12.041Z,24.83
2022-08-31T11:14:11.970Z,25.01
2022-08-31T11:15:11.955Z,25.12
2022-08-31T11:16:11.996Z,25.47
2022-08-31T11:17:12.307Z,25.79
2022-08-31T11:18:11.959Z,26.02
2022-08-31T11:19:11.921Z,25.90
2022-08-31T11:20:11.916Z,26.15
2022-08-31T11:21:11.901Z,26.18
2022-08-31T11:22:11.890Z,26.31
2022-08-31T11:23:11.916Z,26.58
2022-08-31T11:24:11.870Z,26.57
2022-08-31T11:25:11.867Z,26.65
2022-08-31T11:26:11.856Z,26.61
2022-08-31T11:27:11.872Z,26.22
2022-08-31T11:28:11.844Z,26.08
2022-08-31T11:29:11.830Z,26.18
2022-08-31T11:30:11.823Z,26.05
2022-08-31T11:31:11.834Z,25.99
2022-08-31T11:32:11.803Z,26.05
2022-08-31T11:33:11.860Z,26.08
2022-08-31T11:34:16.372Z,26.24
2022-08-31T11:35:11.798Z,26.27
2022-08-31T11:36:11.796Z,26.31
2022-08-31T11:37:11.823Z,26.17
2022-08-31T11:38:11.786Z,26.29
2022-08-31T11:39:11.765Z,26.36
2022-08-31T11:40:11.851Z,26.27
2022-08-31T11:41:11.754Z,26.32
2022-08-31T11:42:11.763Z,26.21
2022-08-31T11:43:11.751Z,25.80
2022-08-31T11:44:11.712Z,25.90
2022-08-31T11:45:14.148Z,25.97
2022-08-31T11:46:12.811Z,26.09
2022-08-31T11:47:11.681Z,25.94
2022-08-31T11:48:11.737Z,25.94
2022-08-31T11:49:11.704Z,26.08
2022-08-31T11:50:11.678Z,26.20
2022-08-31T11:51:11.642Z,26.20
2022-08-31T11:52:11.627Z,26.24
2022-08-31T11:53:11.683Z,26.08
2022-08-31T11:54:11.611Z,26.21
2022-08-31T11:55:11.602Z,25.72
2022-08-31T11:56:11.612Z,25.86
2022-08-31T11:57:11.587Z,25.99
2022-08-31T11:58:11.660Z,25.98
2022-08-31T11:59:11.601Z,26.06
2022-08-31T12:00:11.590Z,25.97
2022-08-31T12:01:11.550Z,25.99
2022-08-31T12:02:11.582Z,25.87
2022-08-31T12:03:11.585Z,25.77
2022-08-31T12:04:11.528Z,25.75
2022-08-31T12:05:11.548Z,25.68
2022-08-31T12:06:11.517Z,25.62
2022-08-31T12:07:11.503Z,25.61
2022-08-31T12:08:11.488Z,25.65
2022-08-31T12:09:11.479Z,25.67
2022-08-31T12:10:11.473Z,25.61
2022-08-31T12:11:11.467Z,25.62
2022-08-31T12:12:11.447Z,25.53
2022-08-31T12:13:11.520Z,25.43
2022-08-31T12:14:11.434Z,25.42
2022-08-31T12:15:11.429Z,25.43
2022-08-31T12:16:11.431Z,25.27
2022-08-31T12:17:11.411Z,25.30
2022-08-31T12:18:11.393Z,25.35
2022-08-31T12:19:11.380Z,25.34
2022-08-31T12:20:11.406Z,25.39
2022-08-31T12:21:11.372Z,25.44
2022-08-31T12:22:11.385Z,25.49
2022-08-31T12:23:11.405Z,25.59
2022-08-31T12:24:18.653Z,25.56
2022-08-31T12:25:11.361Z,25.62
2022-08-31T12:26:11.343Z,25.65
2022-08-31T12:27:11.339Z,25.68
2022-08-31T12:28:11.323Z,25.69
2022-08-31T12:29:11.302Z,25.80
2022-08-31T12:30:11.285Z,25.89
2022-08-31T12:31:11.300Z,25.82
2022-08-31T12:32:11.463Z,25.83
2022-08-31T12:33:11.305Z,25.87
2022-08-31T12:34:11.226Z,25.72
2022-08-31T12:35:11.222Z,25.74
2022-08-31T12:36:11.221Z,25.79
2022-08-31T12:37:11.206Z,25.77
2022-08-31T12:38:11.198Z,25.79
2022-08-31T12:39:11.176Z,25.75
2022-08-31T12:40:11.215Z,25.75
2022-08-31T12:41:11.164Z,25.71
2022-08-31T12:42:11.145Z,25.74
2022-08-31T12:43:11.143Z,25.80
2022-08-31T12:44:14.116Z,25.89
2022-08-31T12:45:11.117Z,25.82
2022-08-31T12:46:11.228Z,25.79
2022-08-31T12:47:11.184Z,25.89
2022-08-31T12:48:11.102Z,25.83
2022-08-31T12:49:11.111Z,25.75
2022-08-31T12:50:11.108Z,25.80
2022-08-31T12:51:11.071Z,25.82
2022-08-31T12:52:11.049Z,25.77
2022-08-31T12:53:11.043Z,25.72